Time;durP1;ratioP1;P1;durP2;ratioP2;P2;SDS_P1;SDS_P2;PMS_P1;PMS_P2;Temp;Humidity;BMP_temperature;BMP_pressure;BME280_temperature;BME280_humidity;BME280_pressure;Samples;Min_cycle;Max_cycle;Signal;HPM_P1;HPM_P2
2023/06/07 00:01:58;;;;;;;591.88;540.75;;;;;;;;;;5070726;28;20139;-66
2023/06/07 00:04:25;;;;;;;603.50;548.65;;;;;;;;;;5070620;28;20560;-66
2023/06/07 00:07:00;;;;;;;572.95;523.83;;;;;;;;;;5070598;28;20040;-66
2023/06/07 00:09:27;;;;;;;575.15;523.33;;;;;;;;;;5070662;28;20073;-66
2023/06/07 00:11:54;;;;;;;566.10;517.60;;;;;;;;;;5071489;28;20064;-66
2023/06/07 00:24:33;;;;;;;563.65;514.67;;;;;;;;;;5081282;28;20048;-67
2023/06/07 00:27:00;;;;;;;564.00;513.90;;;;;;;;;;5078994;28;20118;-66
2023/06/07 00:29:27;;;;;;;566.75;517.00;;;;;;;;;;5078889;28;20044;-66
2023/06/07 00:31:55;;;;;;;549.10;501.90;;;;;;;;;;5062321;28;20441;-66
2023/06/07 00:34:22;;;;;;;555.10;505.67;;;;;;;;;;5078867;28;20161;-67
2023/06/07 00:36:49;;;;;;;559.55;510.65;;;;;;;;;;5078742;28;20058;-66
2023/06/07 00:39:15;;;;;;;564.63;513.03;;;;;;;;;;5076941;28;20135;-66
2023/06/07 00:41:42;;;;;;;552.67;506.02;;;;;;;;;;5080537;28;20039;-67
2023/06/07 00:44:12;;;;;;;549.95;502.67;;;;;;;;;;5062893;28;20135;-66
2023/06/07 00:46:38;;;;;;;553.42;506.77;;;;;;;;;;5064438;28;20053;-66
2023/06/07 00:49:05;;;;;;;570.15;519.53;;;;;;;;;;5066728;28;20068;-66
2023/06/07 00:51:31;;;;;;;579.72;529.38;;;;;;;;;;5083881;28;20040;-67
2023/06/07 00:53:59;;;;;;;568.22;517.25;;;;;;;;;;5063803;28;20044;-66
2023/06/07 00:56:27;;;;;;;579.83;528.33;;;;;;;;;;5081349;28;20044;-67
2023/06/07 00:58:54;;;;;;;584.38;533.05;;;;;;;;;;5082192;28;20051;-65
2023/06/07 01:01:20;;;;;;;571.65;520.50;;;;;;;;;;5065656;28;20049;-66
2023/06/07 01:03:47;;;;;;;580.17;529.55;;;;;;;;;;5064826;28;20493;-66
2023/06/07 01:06:14;;;;;;;597.88;542.28;;;;;;;;;;5061445;28;20059;-66
2023/06/07 01:08:40;;;;;;;589.75;537.80;;;;;;;;;;5084798;28;20047;-65
2023/06/07 01:11:08;;;;;;;563.00;514.65;;;;;;;;;;5083412;28;20037;-66
2023/06/07 01:13:37;;;;;;;572.72;521.88;;;;;;;;;;5080241;28;20457;-65
2023/06/07 01:16:04;;;;;;;570.20;520.15;;;;;;;;;;5082636;28;20132;-65
2023/06/07 01:18:32;;;;;;;579.40;528.00;;;;;;;;;;5085091;28;20072;-65
2023/06/07 01:21:00;;;;;;;570.63;520.03;;;;;;;;;;5080879;28;20536;-66
2023/06/07 01:23:31;;;;;;;579.67;527.80;;;;;;;;;;5046813;28;20056;-65
2023/06/07 01:26:00;;;;;;;585.93;533.90;;;;;;;;;;5084526;28;20036;-66
2023/06/07 01:28:28;;;;;;;652.20;585.13;;;;;;;;;;5081669;28;20123;-65
2023/06/07 01:30:55;;;;;;;611.13;555.70;;;;;;;;;;5063365;28;20382;-65
2023/06/07 01:33:22;;;;;;;630.17;568.20;;;;;;;;;;5079997;28;20052;-66
2023/06/07 01:35:50;;;;;;;623.65;564.20;;;;;;;;;;5079576;28;20052;-65
2023/06/07 01:38:19;;;;;;;576.30;523.42;;;;;;;;;;5081105;28;20051;-65
2023/06/07 01:40:46;;;;;;;526.17;480.42;;;;;;;;;;5078617;28;20044;-66
2023/06/07 01:43:13;;;;;;;515.33;470.38;;;;;;;;;;5081747;28;20561;-66
2023/06/07 01:45:40;;;;;;;484.17;441.95;;;;;;;;;;5083364;28;20055;-65
2023/06/07 01:48:08;;;;;;;485.27;444.80;;;;;;;;;;5080009;28;20048;-65
2023/06/07 01:50:35;;;;;;;463.77;425.83;;;;;;;;;;5081108;28;20036;-65
2023/06/07 01:53:01;;;;;;;456.80;419.45;;;;;;;;;;5082630;28;20048;-66
2023/06/07 01:55:28;;;;;;;460.27;422.20;;;;;;;;;;5081389;28;20064;-65
2023/06/07 01:58:13;;;;;;;457.65;420.17;;;;;;;;;;5081622;28;20042;-65
2023/06/07 02:03:41;;;;;;;404.98;364.00;;;;;;;;;;4831676;26;20491;-68
2023/06/07 02:06:11;;;;;;;394.55;355.83;;;;;;;;;;5032626;28;20037;-70
2023/06/07 02:08:51;;;;;;;380.85;344.80;;;;;;;;;;5032598;28;20442;-66
2023/06/07 02:11:20;;;;;;;380.48;345.52;;;;;;;;;;5013733;28;20045;-67
2023/06/07 02:13:49;;;;;;;372.20;339.27;;;;;;;;;;5002088;28;20058;-68
2023/06/07 02:16:16;;;;;;;379.00;344.33;;;;;;;;;;5028414;28;20041;-67
2023/06/07 02:18:44;;;;;;;366.10;333.45;;;;;;;;;;5034260;28;20038;-66
2023/06/07 02:21:11;;;;;;;379.88;344.02;;;;;;;;;;5011020;28;20045;-67
2023/06/07 02:23:40;;;;;;;370.70;337.40;;;;;;;;;;5031632;28;20395;-67
2023/06/07 02:26:06;;;;;;;361.98;329.50;;;;;;;;;;5031267;28;20030;-68
2023/06/07 02:28:34;;;;;;;362.15;328.45;;;;;;;;;;5013621;28;20045;-67
2023/06/07 02:31:01;;;;;;;355.48;321.55;;;;;;;;;;5032119;28;20458;-67
2023/06/07 02:33:28;;;;;;;380.45;343.10;;;;;;;;;;5007700;28;20073;-67
2023/06/07 02:35:55;;;;;;;360.45;328.85;;;;;;;;;;5032531;28;20045;-67
2023/06/07 02:38:23;;;;;;;348.67;318.23;;;;;;;;;;5012618;28;20045;-67
2023/06/07 02:40:50;;;;;;;359.13;326.60;;;;;;;;;;5010811;28;20103;-68
2023/06/07 02:43:17;;;;;;;341.92;311.48;;;;;;;;;;5013205;28;20053;-67
2023/06/07 02:45:44;;;;;;;353.70;321.90;;;;;;;;;;5009924;28;20479;-67
2023/06/07 02:48:15;;;;;;;363.35;328.02;;;;;;;;;;5002621;28;20491;-68
2023/06/07 02:50:43;;;;;;;334.25;306.23;;;;;;;;;;5014344;28;20132;-66
2023/06/07 02:53:10;;;;;;;338.88;308.92;;;;;;;;;;5031159;28;20056;-66
2023/06/07 02:55:37;;;;;;;344.25;311.83;;;;;;;;;;5012735;28;20407;-66
2023/06/07 02:58:05;;;;;;;342.20;310.73;;;;;;;;;;5030756;28;20044;-66
2023/06/07 03:00:35;;;;;;;336.77;305.98;;;;;;;;;;5013940;28;20045;-67
2023/06/07 03:03:08;;;;;;;348.55;317.55;;;;;;;;;;5011846;28;20075;-68
2023/06/07 03:05:41;;;;;;;333.73;303.85;;;;;;;;;;5013119;28;20042;-67
2023/06/07 03:08:11;;;;;;;368.60;334.77;;;;;;;;;;4996510;28;20502;-70
2023/06/07 03:10:40;;;;;;;367.08;335.95;;;;;;;;;;5013084;28;20057;-67
2023/06/07 03:13:11;;;;;;;373.60;340.25;;;;;;;;;;5013699;28;20045;-69
2023/06/07 03:15:40;;;;;;;393.92;358.48;;;;;;;;;;5030505;28;20084;-67
2023/06/07 03:18:07;;;;;;;401.75;367.42;;;;;;;;;;5011902;28;20503;-71
2023/06/07 03:20:38;;;;;;;418.98;382.10;;;;;;;;;;5013437;28;20065;-68
2023/06/07 03:23:11;;;;;;;421.10;384.67;;;;;;;;;;5012470;28;20418;-67
2023/06/07 03:25:42;;;;;;;415.60;381.08;;;;;;;;;;5013212;28;20096;-67
2023/06/07 03:28:10;;;;;;;608.47;401.95;;;;;;;;;;5012023;28;20041;-68
2023/06/07 03:30:42;;;;;;;420.75;385.45;;;;;;;;;;5014588;28;20640;-68
2023/06/07 03:33:09;;;;;;;431.65;393.35;;;;;;;;;;5013269;28;20557;-69
2023/06/07 03:35:41;;;;;;;422.70;386.23;;;;;;;;;;5020949;28;20055;-67
2023/06/07 03:38:12;;;;;;;405.40;371.92;;;;;;;;;;5012801;28;20079;-68
2023/06/07 03:40:41;;;;;;;419.60;383.95;;;;;;;;;;5012630;28;20057;-68
2023/06/07 03:43:09;;;;;;;431.05;386.60;;;;;;;;;;5012467;28;20119;-66
2023/06/07 03:45:36;;;;;;;420.77;384.10;;;;;;;;;;5012433;28;20073;-68
2023/06/07 03:48:10;;;;;;;;;;;;;;;;;;5028489;28;20049;-67
2023/06/07 03:50:37;;;;;;;424.63;390.52;;;;;;;;;;5013201;28;20279;-68
2023/06/07 03:53:04;;;;;;;425.60;390.08;;;;;;;;;;5012110;28;20515;-68
2023/06/07 03:55:33;;;;;;;428.65;390.70;;;;;;;;;;5009894;28;20049;-69
2023/06/07 03:58:00;;;;;;;455.83;417.85;;;;;;;;;;5030450;28;20080;-66
2023/06/07 04:00:30;;;;;;;457.23;418.17;;;;;;;;;;5016031;28;20049;-68
2023/06/07 04:02:58;;;;;;;438.20;401.50;;;;;;;;;;5013208;28;20148;-69
2023/06/07 04:05:28;;;;;;;386.48;356.25;;;;;;;;;;5012215;28;20057;-69
2023/06/07 04:07:59;;;;;;;376.50;344.02;;;;;;;;;;5030035;28;21179;-69
2023/06/07 04:10:30;;;;;;;384.45;353.27;;;;;;;;;;5012289;28;20046;-69
2023/06/07 04:12:57;;;;;;;454.67;418.02;;;;;;;;;;5013111;28;20144;-68
2023/06/07 04:15:27;;;;;;;466.67;425.17;;;;;;;;;;5014555;28;20049;-68
2023/06/07 04:17:54;;;;;;;449.75;413.58;;;;;;;;;;5036485;28;20045;-68
2023/06/07 04:20:22;;;;;;;466.70;427.17;;;;;;;;;;5015913;28;20144;-67
2023/06/07 04:22:51;;;;;;;466.17;427.80;;;;;;;;;;5015045;28;20050;-69
2023/06/07 04:25:24;;;;;;;490.13;448.60;;;;;;;;;;5033564;28;20045;-68
2023/06/07 04:27:59;;;;;;;525.78;481.80;;;;;;;;;;5015892;28;20056;-69
2023/06/07 04:30:34;;;;;;;515.80;469.95;;;;;;;;;;5015265;28;20521;-67
2023/06/07 04:33:10;;;;;;;534.95;487.60;;;;;;;;;;5000888;28;20056;-68
2023/06/07 04:35:41;;;;;;;532.42;487.27;;;;;;;;;;5034583;28;20134;-67
2023/06/07 04:38:15;;;;;;;521.67;476.50;;;;;;;;;;5015518;28;20506;-68
2023/06/07 04:40:48;;;;;;;593.30;541.00;;;;;;;;;;5009763;28;20069;-68
2023/06/07 04:43:25;;;;;;;537.05;491.38;;;;;;;;;;5010025;28;20517;-68
2023/06/07 04:45:55;;;;;;;569.22;519.15;;;;;;;;;;5015700;28;20056;-69
2023/06/07 04:48:27;;;;;;;576.08;523.85;;;;;;;;;;5015628;28;20083;-67
2023/06/07 04:51:18;;;;;;;552.85;502.95;;;;;;;;;;5017116;28;20463;-67
2023/06/07 04:53:48;;;;;;;851.10;760.13;;;;;;;;;;5002949;28;20065;-68
2023/06/07 04:56:21;;;;;;;997.63;905.83;;;;;;;;;;5015668;28;20056;-69
2023/06/07 04:58:52;;;;;;;1047.13;951.45;;;;;;;;;;5015261;28;20045;-68
2023/06/07 05:01:22;;;;;;;1073.88;971.38;;;;;;;;;;4991854;28;20402;-71
2023/06/07 05:03:50;;;;;;;1086.53;983.53;;;;;;;;;;5015451;28;20100;-69
2023/06/07 05:06:18;;;;;;;1030.72;934.40;;;;;;;;;;5015813;28;20064;-69
2023/06/07 05:08:50;;;;;;;994.45;904.90;;;;;;;;;;5014094;28;20049;-69
2023/06/07 05:11:17;;;;;;;991.40;902.08;;;;;;;;;;5014888;28;20494;-68
2023/06/07 05:13:46;;;;;;;975.92;885.83;;;;;;;;;;5014746;28;20072;-67
2023/06/07 05:16:16;;;;;;;1047.70;950.88;;;;;;;;;;5015180;28;20037;-67
2023/06/07 05:18:49;;;;;;;1084.55;980.30;;;;;;;;;;5015183;28;20045;-67
2023/06/07 05:21:20;;;;;;;1065.13;960.78;;;;;;;;;;5000386;28;20572;-71
2023/06/07 05:23:47;;;;;;;1035.28;937.33;;;;;;;;;;5016736;28;20057;-67
2023/06/07 05:26:15;;;;;;;1056.13;960.03;;;;;;;;;;5014302;28;20048;-69
2023/06/07 05:28:43;;;;;;;1052.55;957.88;;;;;;;;;;5014645;28;20049;-68
2023/06/07 05:31:11;;;;;;;1073.70;974.08;;;;;;;;;;5014664;28;20545;-67
2023/06/07 05:33:39;;;;;;;1068.10;971.17;;;;;;;;;;4999007;28;20148;-67
2023/06/07 05:36:10;;;;;;;1047.78;951.80;;;;;;;;;;5003476;28;20054;-69
2023/06/07 05:38:40;;;;;;;1065.70;969.05;;;;;;;;;;5031382;28;20045;-68
2023/06/07 05:41:10;;;;;;;1061.20;965.42;;;;;;;;;;5023758;28;20434;-70
2023/06/07 05:43:37;;;;;;;1089.65;956.88;;;;;;;;;;5027848;28;20037;-68
2023/06/07 05:46:08;;;;;;;1064.22;965.65;;;;;;;;;;5031646;28;20044;-69
2023/06/07 05:48:37;;;;;;;1053.07;957.53;;;;;;;;;;5013858;28;20057;-68
2023/06/07 05:51:10;;;;;;;1068.03;952.35;;;;;;;;;;5012757;28;20612;-68
2023/06/07 05:53:37;;;;;;;1033.10;939.55;;;;;;;;;;4998128;28;20057;-67
2023/06/07 05:56:05;;;;;;;1056.53;958.63;;;;;;;;;;5031544;28;20079;-69
2023/06/07 05:58:32;;;;;;;1075.35;976.33;;;;;;;;;;5013693;28;20475;-68
2023/06/07 06:00:59;;;;;;;1095.35;994.08;;;;;;;;;;5031810;28;20501;-68
2023/06/07 06:03:26;;;;;;;1068.50;967.45;;;;;;;;;;5031960;28;20490;-68
2023/06/07 06:05:56;;;;;;;1095.10;998.38;;;;;;;;;;5014730;28;20058;-68
2023/06/07 06:08:22;;;;;;;1064.95;971.15;;;;;;;;;;5032040;28;20037;-68
2023/06/07 06:10:49;;;;;;;1060.85;969.40;;;;;;;;;;5032250;28;20128;-68
2023/06/07 06:13:16;;;;;;;1035.65;945.65;;;;;;;;;;5032335;28;20069;-68
2023/06/07 06:15:43;;;;;;;1037.82;947.35;;;;;;;;;;5032388;28;20095;-68
2023/06/07 06:18:10;;;;;;;1075.82;981.63;;;;;;;;;;5015782;28;20376;-68
2023/06/07 06:20:37;;;;;;;1033.68;942.97;;;;;;;;;;5032289;28;20044;-68
2023/06/07 06:23:04;;;;;;;1019.05;929.60;;;;;;;;;;5013544;28;20033;-68
2023/06/07 06:25:31;;;;;;;1053.40;961.08;;;;;;;;;;5013807;28;20137;-68
2023/06/07 06:27:58;;;;;;;1041.50;948.15;;;;;;;;;;5031572;28;20041;-69
2023/06/07 06:30:26;;;;;;;1103.68;999.90;;;;;;;;;;5014481;28;20045;-68
2023/06/07 06:32:53;;;;;;;1103.68;999.90;;;;;;;;;;5032760;28;20085;-68
2023/06/07 06:35:20;;;;;;;1118.05;999.90;;;;;;;;;;5013395;28;20474;-69
2023/06/07 06:37:46;;;;;;;1153.38;999.90;;;;;;;;;;5012684;28;20045;-68
2023/06/07 06:40:13;;;;;;;1163.22;999.90;;;;;;;;;;5013467;28;20084;-68
2023/06/07 06:42:40;;;;;;;1188.55;999.90;;;;;;;;;;5031088;28;20061;-67
2023/06/07 06:45:20;;;;;;;1169.57;999.90;;;;;;;;;;5013817;28;20084;-68
2023/06/07 06:47:47;;;;;;;1173.50;999.90;;;;;;;;;;5032597;28;20041;-68
2023/06/07 06:50:14;;;;;;;1169.45;999.90;;;;;;;;;;5013401;28;20038;-70
2023/06/07 06:52:58;;;;;;;1181.00;999.90;;;;;;;;;;5031636;28;20041;-69
2023/06/07 06:55:25;;;;;;;1160.65;999.90;;;;;;;;;;5013214;28;20045;-68
2023/06/07 06:57:52;;;;;;;1148.45;999.90;;;;;;;;;;5031494;28;20041;-69
2023/06/07 07:00:18;;;;;;;1175.57;999.90;;;;;;;;;;5031338;28;20532;-68
2023/06/07 07:02:45;;;;;;;1166.82;999.90;;;;;;;;;;5032222;28;20103;-69
2023/06/07 07:05:12;;;;;;;1164.13;999.90;;;;;;;;;;5031199;28;20045;-72
2023/06/07 07:07:39;;;;;;;1125.00;999.90;;;;;;;;;;5012263;28;20042;-68
2023/06/07 07:10:06;;;;;;;1120.72;999.90;;;;;;;;;;5031061;28;20041;-68
2023/06/07 07:12:36;;;;;;;1129.28;999.90;;;;;;;;;;5012987;28;20052;-68
2023/06/07 07:15:04;;;;;;;1116.88;999.90;;;;;;;;;;5014129;28;20572;-67
2023/06/07 07:17:30;;;;;;;1116.03;999.90;;;;;;;;;;5033812;28;20037;-69
2023/06/07 07:19:57;;;;;;;1089.78;993.88;;;;;;;;;;5012977;28;20475;-68
2023/06/07 07:22:24;;;;;;;1105.82;999.55;;;;;;;;;;5030373;28;20469;-68
2023/06/07 07:24:54;;;;;;;1095.78;999.10;;;;;;;;;;5005711;28;20045;-69
2023/06/07 07:27:22;;;;;;;1103.63;999.85;;;;;;;;;;5031517;28;20509;-68
2023/06/07 07:29:49;;;;;;;1106.50;999.90;;;;;;;;;;5031697;28;20111;-67
2023/06/07 07:32:16;;;;;;;1140.07;999.90;;;;;;;;;;5030818;28;20514;-68
2023/06/07 07:34:42;;;;;;;1113.93;999.90;;;;;;;;;;5030665;28;20112;-71
2023/06/07 07:37:09;;;;;;;1112.25;999.90;;;;;;;;;;5011205;28;20513;-68
2023/06/07 07:39:36;;;;;;;1153.53;999.90;;;;;;;;;;5030525;28;20037;-67
2023/06/07 07:42:05;;;;;;;1182.72;999.90;;;;;;;;;;5014167;28;20049;-70
2023/06/07 07:44:35;;;;;;;1190.85;999.90;;;;;;;;;;4998907;28;20049;-69
2023/06/07 07:47:02;;;;;;;1182.43;999.90;;;;;;;;;;5030772;28;20091;-68
2023/06/07 07:49:28;;;;;;;1173.80;999.90;;;;;;;;;;5013106;28;20049;-69
2023/06/07 07:51:55;;;;;;;1145.97;999.90;;;;;;;;;;5034727;28;20091;-69
2023/06/07 07:54:22;;;;;;;1148.90;999.90;;;;;;;;;;5016983;28;20076;-68
2023/06/07 07:56:48;;;;;;;1116.30;999.90;;;;;;;;;;5035645;28;20107;-69
2023/06/07 07:59:15;;;;;;;1099.18;999.90;;;;;;;;;;5016722;28;20046;-67
2023/06/07 08:01:42;;;;;;;1086.07;992.95;;;;;;;;;;5015799;28;20107;-67
2023/06/07 08:04:08;;;;;;;1091.15;997.83;;;;;;;;;;5030674;28;20049;-67
2023/06/07 08:06:35;;;;;;;1078.35;986.30;;;;;;;;;;5034135;28;20053;-67
2023/06/07 08:09:02;;;;;;;1080.15;988.45;;;;;;;;;;5017637;28;20064;-70
2023/06/07 08:11:28;;;;;;;1055.68;964.88;;;;;;;;;;5034443;28;20073;-67
2023/06/07 08:13:55;;;;;;;1053.05;964.38;;;;;;;;;;5016823;28;20056;-68
2023/06/07 08:16:21;;;;;;;1061.18;970.33;;;;;;;;;;5016286;28;20041;-67
2023/06/07 08:18:55;;;;;;;1033.78;947.67;;;;;;;;;;5035356;28;20053;-67
2023/06/07 08:21:22;;;;;;;1047.22;956.08;;;;;;;;;;5034727;28;20047;-67
2023/06/07 08:23:49;;;;;;;1044.18;956.47;;;;;;;;;;5017251;28;20049;-67
2023/06/07 08:26:16;;;;;;;1042.72;955.58;;;;;;;;;;5033608;28;20042;-68
2023/06/07 08:28:42;;;;;;;1034.43;948.65;;;;;;;;;;5016076;28;20120;-68
2023/06/07 08:31:10;;;;;;;1037.55;951.70;;;;;;;;;;5033907;28;20395;-67
2023/06/07 08:33:37;;;;;;;1024.50;938.38;;;;;;;;;;5033822;28;20049;-67
2023/06/07 08:36:04;;;;;;;1032.90;948.35;;;;;;;;;;5035005;28;20042;-69
2023/06/07 08:38:30;;;;;;;1037.88;952.15;;;;;;;;;;5034265;28;20112;-68
2023/06/07 08:40:58;;;;;;;1019.13;935.72;;;;;;;;;;5035322;28;20091;-68
2023/06/07 08:43:25;;;;;;;1036.35;950.65;;;;;;;;;;5016025;28;20056;-68
2023/06/07 08:45:52;;;;;;;1020.10;935.10;;;;;;;;;;5033767;28;20434;-68
2023/06/07 08:48:19;;;;;;;1029.45;943.20;;;;;;;;;;5015654;28;20052;-67
2023/06/07 08:50:46;;;;;;;1032.05;946.95;;;;;;;;;;5034209;28;20052;-65
2023/06/07 08:53:14;;;;;;;1036.70;950.10;;;;;;;;;;5015096;28;20034;-67
2023/06/07 08:55:44;;;;;;;1028.68;943.88;;;;;;;;;;5015160;28;20466;-66
2023/06/07 08:58:11;;;;;;;1029.05;944.08;;;;;;;;;;5033715;28;20497;-66
2023/06/07 09:00:38;;;;;;;1018.65;934.22;;;;;;;;;;5032672;28;20061;-67
2023/06/07 09:03:05;;;;;;;1022.63;937.80;;;;;;;;;;5016487;28;20049;-67
2023/06/07 09:05:32;;;;;;;1024.15;938.92;;;;;;;;;;5015879;28;20065;-67
2023/06/07 09:08:00;;;;;;;1021.30;937.55;;;;;;;;;;5033456;28;20037;-66
2023/06/07 09:10:27;;;;;;;1032.82;945.83;;;;;;;;;;5029927;28;20376;-67
2023/06/07 09:12:54;;;;;;;1029.45;945.13;;;;;;;;;;5015050;28;20483;-66
2023/06/07 09:15:21;;;;;;;1003.92;919.45;;;;;;;;;;5033181;28;20103;-69
2023/06/07 09:18:04;;;;;;;986.03;904.83;;;;;;;;;;5019852;28;20049;-66
2023/06/07 09:20:31;;;;;;;962.20;883.33;;;;;;;;;;5031966;28;20080;-67
2023/06/07 09:22:59;;;;;;;970.65;888.72;;;;;;;;;;5013975;28;20451;-67
2023/06/07 09:25:27;;;;;;;944.47;866.50;;;;;;;;;;5014424;28;20418;-67
2023/06/07 09:27:54;;;;;;;968.40;888.03;;;;;;;;;;5014556;28;20140;-68
2023/06/07 09:30:21;;;;;;;982.83;899.80;;;;;;;;;;5014968;28;20116;-70
2023/06/07 09:32:48;;;;;;;994.85;912.42;;;;;;;;;;5012598;28;20100;-65
2023/06/07 09:35:16;;;;;;;1002.35;917.30;;;;;;;;;;5013925;28;20042;-66
2023/06/07 09:37:45;;;;;;;1023.92;940.22;;;;;;;;;;5015910;28;20042;-66
2023/06/07 09:40:13;;;;;;;1057.82;970.00;;;;;;;;;;5034336;28;20538;-67
2023/06/07 09:42:40;;;;;;;1076.35;986.05;;;;;;;;;;5016332;28;20033;-65
2023/06/07 09:45:17;;;;;;;1095.95;999.40;;;;;;;;;;5016431;28;20530;-70
2023/06/07 09:47:43;;;;;;;1100.93;999.90;;;;;;;;;;5035054;28;20049;-69
2023/06/07 09:50:14;;;;;;;1108.93;999.90;;;;;;;;;;5016673;28;20102;-65
2023/06/07 09:52:40;;;;;;;1112.28;999.90;;;;;;;;;;5018919;28;20045;-65
2023/06/07 09:55:08;;;;;;;1114.68;999.90;;;;;;;;;;5037376;28;20042;-69
2023/06/07 09:57:37;;;;;;;1121.65;999.90;;;;;;;;;;5004887;28;20080;-70
2023/06/07 10:00:14;;;;;;;1113.55;999.90;;;;;;;;;;5036045;28;20056;-70
2023/06/07 10:02:42;;;;;;;1102.93;999.90;;;;;;;;;;5039081;28;20054;-70
2023/06/07 10:05:09;;;;;;;1108.40;999.90;;;;;;;;;;5021684;28;20446;-69
2023/06/07 10:07:43;;;;;;;1098.15;998.95;;;;;;;;;;5020773;28;20069;-70
2023/06/07 10:10:11;;;;;;;1091.30;998.80;;;;;;;;;;5035941;28;20049;-71
2023/06/07 10:12:40;;;;;;;1084.45;985.38;;;;;;;;;;5020844;28;20054;-70
2023/06/07 10:15:11;;;;;;;1063.07;975.17;;;;;;;;;;5039971;28;20047;-71
2023/06/07 10:17:48;;;;;;;1062.65;969.55;;;;;;;;;;5020287;28;20049;-71
2023/06/07 10:20:24;;;;;;;1057.28;971.00;;;;;;;;;;5008657;28;20044;-73
2023/06/07 10:22:54;;;;;;;1017.95;935.30;;;;;;;;;;5020665;28;20109;-71
2023/06/07 10:25:22;;;;;;;1013.35;930.42;;;;;;;;;;5038470;28;20521;-70
2023/06/07 10:28:15;;;;;;;1009.90;925.35;;;;;;;;;;5018974;28;20044;-71
2023/06/07 10:30:53;;;;;;;969.80;889.92;;;;;;;;;;5032575;28;20049;-71
2023/06/07 10:33:20;;;;;;;924.35;848.20;;;;;;;;;;5019832;28;20099;-72
2023/06/07 10:35:48;;;;;;;907.00;833.10;;;;;;;;;;5019710;28;20046;-70
2023/06/07 10:38:14;;;;;;;868.80;797.25;;;;;;;;;;5031216;28;20546;-71
2023/06/07 10:40:41;;;;;;;858.58;788.30;;;;;;;;;;5036731;28;20041;-70
2023/06/07 10:43:08;;;;;;;841.50;772.00;;;;;;;;;;5037282;28;20048;-70
2023/06/07 10:45:35;;;;;;;848.33;775.28;;;;;;;;;;5036731;28;20049;-70
2023/06/07 10:48:20;;;;;;;810.08;743.33;;;;;;;;;;5017328;28;20103;-71
2023/06/07 10:50:47;;;;;;;794.92;729.28;;;;;;;;;;5036267;28;20128;-70
2023/06/07 10:53:14;;;;;;;790.08;725.20;;;;;;;;;;4997651;28;20045;-71
2023/06/07 10:55:41;;;;;;;777.58;713.20;;;;;;;;;;5035960;28;20047;-70
2023/06/07 10:58:24;;;;;;;756.28;694.67;;;;;;;;;;5033483;28;20574;-70
2023/06/07 11:00:51;;;;;;;727.80;665.22;;;;;;;;;;5032267;28;20479;-70
2023/06/07 11:03:23;;;;;;;726.30;666.67;;;;;;;;;;5035100;28;20056;-73
2023/06/07 11:05:50;;;;;;;;;;;;;;;;;;5034463;28;20068;-70
2023/06/07 11:08:27;;;;;;;704.65;647.08;;;;;;;;;;5033172;28;19954;-69
2023/06/07 11:11:01;;;;;;;706.78;648.88;;;;;;;;;;5033823;28;20037;-70
2023/06/07 11:13:43;;;;;;;710.22;652.47;;;;;;;;;;5033862;28;20061;-70
2023/06/07 11:16:22;;;;;;;720.28;660.50;;;;;;;;;;5028435;28;20057;-70
2023/06/07 11:18:52;;;;;;;659.13;604.10;;;;;;;;;;5031915;28;20049;-72
2023/06/07 11:21:19;;;;;;;672.33;616.92;;;;;;;;;;5032040;28;20034;-71
2023/06/07 11:23:46;;;;;;;666.60;611.42;;;;;;;;;;5007689;28;20046;-72
2023/06/07 11:26:13;;;;;;;653.28;598.45;;;;;;;;;;5012294;28;20124;-71
2023/06/07 11:28:40;;;;;;;627.67;574.88;;;;;;;;;;5031157;28;20077;-70
2023/06/07 11:31:08;;;;;;;622.33;570.83;;;;;;;;;;5031496;28;20459;-71
2023/06/07 11:33:35;;;;;;;624.60;571.50;;;;;;;;;;5031326;28;20070;-69
2023/06/07 11:36:06;;;;;;;607.70;558.42;;;;;;;;;;5014532;28;20057;-70
2023/06/07 11:38:33;;;;;;;624.70;573.70;;;;;;;;;;4995775;28;20056;-70
2023/06/07 11:41:03;;;;;;;617.85;567.63;;;;;;;;;;5030825;28;20121;-70
2023/06/07 11:43:31;;;;;;;620.30;569.17;;;;;;;;;;5011871;28;20140;-70
2023/06/07 11:45:58;;;;;;;605.90;556.63;;;;;;;;;;5013693;28;20073;-70
2023/06/07 11:48:26;;;;;;;617.08;564.10;;;;;;;;;;5031433;28;20038;-73
2023/06/07 11:50:53;;;;;;;580.95;533.97;;;;;;;;;;5013829;28;20042;-70
2023/06/07 11:53:20;;;;;;;598.42;549.40;;;;;;;;;;5011949;28;20055;-69
2023/06/07 11:55:47;;;;;;;564.08;519.35;;;;;;;;;;5031119;28;20045;-69
2023/06/07 11:58:13;;;;;;;575.33;528.10;;;;;;;;;;5030479;28;20042;-70
2023/06/07 12:00:42;;;;;;;564.28;519.30;;;;;;;;;;5012589;28;20041;-69
2023/06/07 12:03:13;;;;;;;573.35;523.38;;;;;;;;;;5013468;28;20053;-70
2023/06/07 12:05:40;;;;;;;556.13;511.67;;;;;;;;;;5030299;28;20057;-69
2023/06/07 12:08:10;;;;;;;556.90;512.40;;;;;;;;;;5030505;28;20041;-70
2023/06/07 12:10:36;;;;;;;561.65;517.05;;;;;;;;;;5030495;28;20045;-71
2023/06/07 12:13:23;;;;;;;574.03;528.33;;;;;;;;;;5030175;28;20057;-70
2023/06/07 12:15:54;;;;;;;555.75;509.35;;;;;;;;;;5030167;28;20136;-70
2023/06/07 12:18:27;;;;;;;564.10;516.00;;;;;;;;;;5030318;28;20064;-69
2023/06/07 12:21:04;;;;;;;532.78;490.42;;;;;;;;;;5012854;28;20080;-70
2023/06/07 12:23:31;;;;;;;555.45;508.73;;;;;;;;;;5029934;28;20048;-69
2023/06/07 12:26:08;;;;;;;549.97;507.13;;;;;;;;;;5012241;28;20384;-70
2023/06/07 12:28:35;;;;;;;554.17;509.27;;;;;;;;;;5028764;28;20487;-70
2023/06/07 12:31:02;;;;;;;540.63;496.38;;;;;;;;;;5029790;28;20656;-70
2023/06/07 12:33:29;;;;;;;657.20;499.88;;;;;;;;;;5030296;28;20054;-70
2023/06/07 12:35:59;;;;;;;544.35;500.55;;;;;;;;;;5032173;28;20096;-71
2023/06/07 12:38:25;;;;;;;557.80;512.97;;;;;;;;;;5015749;28;20065;-70
2023/06/07 12:40:52;;;;;;;538.05;496.27;;;;;;;;;;5033860;28;20470;-71
2023/06/07 12:43:19;;;;;;;542.70;498.65;;;;;;;;;;5016280;28;20132;-70
2023/06/07 12:45:45;;;;;;;538.30;493.95;;;;;;;;;;5015742;28;20099;-70
2023/06/07 12:48:12;;;;;;;538.28;495.20;;;;;;;;;;5034872;28;20046;-69
2023/06/07 12:50:39;;;;;;;533.92;491.60;;;;;;;;;;5015472;28;20115;-70
2023/06/07 12:53:05;;;;;;;554.88;508.38;;;;;;;;;;5033738;28;20053;-70
2023/06/07 12:55:32;;;;;;;625.15;496.00;;;;;;;;;;5033178;28;20371;-71
2023/06/07 12:57:59;;;;;;;547.15;501.30;;;;;;;;;;5033607;28;20450;-69
2023/06/07 13:00:25;;;;;;;549.50;501.40;;;;;;;;;;5033390;28;20044;-73
2023/06/07 13:02:52;;;;;;;507.85;468.35;;;;;;;;;;5033430;28;20116;-71
2023/06/07 13:05:20;;;;;;;520.83;479.55;;;;;;;;;;5033328;28;20096;-70
2023/06/07 13:07:46;;;;;;;522.97;480.88;;;;;;;;;;5033457;28;20562;-70
2023/06/07 13:10:13;;;;;;;511.10;471.20;;;;;;;;;;5015578;28;20379;-69
2023/06/07 13:12:40;;;;;;;520.38;475.15;;;;;;;;;;5033609;28;20045;-69
2023/06/07 13:15:07;;;;;;;512.45;472.17;;;;;;;;;;5016451;28;20132;-71
2023/06/07 13:17:34;;;;;;;503.88;455.45;;;;;;;;;;5033583;28;20479;-71
2023/06/07 13:20:01;;;;;;;480.70;443.00;;;;;;;;;;5033138;28;20391;-70
2023/06/07 13:22:28;;;;;;;495.30;454.15;;;;;;;;;;5034066;28;20065;-69
2023/06/07 13:24:57;;;;;;;479.85;441.45;;;;;;;;;;4999594;28;20376;-69
2023/06/07 13:27:26;;;;;;;475.42;435.65;;;;;;;;;;5033110;28;20053;-70
2023/06/07 13:29:53;;;;;;;452.77;415.00;;;;;;;;;;5032832;28;20616;-70
2023/06/07 13:32:20;;;;;;;433.05;399.60;;;;;;;;;;5032604;28;20545;-69
2023/06/07 13:34:47;;;;;;;459.40;424.42;;;;;;;;;;5032761;28;20567;-70
2023/06/07 13:37:14;;;;;;;458.98;422.67;;;;;;;;;;5032692;28;20075;-69
2023/06/07 13:39:40;;;;;;;469.25;425.98;;;;;;;;;;5015017;28;20472;-70
2023/06/07 13:42:07;;;;;;;460.52;425.42;;;;;;;;;;5033512;28;20041;-71
2023/06/07 13:44:34;;;;;;;461.58;424.15;;;;;;;;;;5013860;28;20053;-70
2023/06/07 13:47:00;;;;;;;462.48;419.70;;;;;;;;;;5031846;28;20033;-70
2023/06/07 13:49:27;;;;;;;448.67;413.70;;;;;;;;;;5032211;28;20041;-70
2023/06/07 13:51:54;;;;;;;462.65;425.90;;;;;;;;;;5032406;28;20065;-70
2023/06/07 13:54:21;;;;;;;461.23;424.73;;;;;;;;;;5015431;28;20431;-73
2023/06/07 13:56:47;;;;;;;471.42;432.85;;;;;;;;;;5015212;28;20136;-70
2023/06/07 13:59:14;;;;;;;473.58;434.05;;;;;;;;;;5032202;28;20049;-70
2023/06/07 14:01:41;;;;;;;463.35;426.65;;;;;;;;;;5031535;28;20091;-70
2023/06/07 14:04:08;;;;;;;485.77;447.30;;;;;;;;;;5032519;28;20052;-71
2023/06/07 14:06:37;;;;;;;466.23;424.67;;;;;;;;;;5014442;28;20045;-70
2023/06/07 14:09:03;;;;;;;457.35;421.45;;;;;;;;;;5015226;28;20065;-71
2023/06/07 14:11:30;;;;;;;466.33;429.45;;;;;;;;;;5013584;28;20041;-70